** WELKOM OP ONZE WEBSITE MET ACTUELE WEERDATA VANUIT IZEGEM **
Het weer levert geen direct gevaar op.    Er zijn geen waarschuwingen afgegeven.

Weercam te Izegem Meer informatie Weercam te Izegem


Lokaal brand risico:
FWI


Regionaal brand risico: Meer informatie


Steun ons initiatief via een kleine donatie!



METAR rapporten vliegvelden

   
EBOS - Oostende Airport, Belgium
Afstand tot: NW 39 km
Gewijzigd: 13-11-2019 12:20
Licht bewolkt  
Licht bewolkt  
   Wind: Westen 22.2 km/h
Wind: Westen 22.2 km/h
Temperatuur: 9°C
Voelt als: 6°C
Dauwpunt: 5°C
Vochtigheid: 76%
Barometer: 1001 hPa
Bewolking: Few Clouds
Zicht: meer dan 10 km
Bewolking: Licht bewolkt 2000 ft
EBOS 131120Z 26012KT 9999 FEW020 09/05 Q1001 NOSIG
LFQQ - Lille/Lesquin, France
Afstand tot: Z 40 km
Gewijzigd: 13-11-2019 12:30
Licht bewolkt  
Licht bewolkt  
   Wind: WZW 11.1 km/h
Wind: WZW 11.1 km/h
Temperatuur: 10°C
Voelt als: 8°C
Dauwpunt: 5°C
Vochtigheid: 71%
Barometer: 1001 hPa
Bewolking: Few Clouds
Zicht: meer dan 10 km
Bewolking: Licht bewolkt 2200 ft
LFQQ 131130Z AUTO 24006KT 200V280 9999 FEW022 10/05 Q1001 NOSIG
EBFN - Koksijde (bel-Af, Belgium
Afstand tot: WNW 43 km
Gewijzigd: 13-11-2019 12:25
Grotendeels bewolkt  
Grotendeels bewolkt  
   Wind: Westen 16.7 km/h
Wind: Westen 16.7 km/h
Temperatuur: 8°C
Voelt als: 5°C
Dauwpunt: 5°C
Vochtigheid: 82%
Barometer: 1001 hPa
Bewolking: Mostly Cloudy
Zicht: meer dan 10 km
Bewolking: Licht bewolkt 1900 ft,
Gedeeltelijk bewolkt 3000 ft,
Grotendeels bewolkt 24000 ft
EBFN 131125Z 26009KT 9999 FEW019 SCT030 BKN240 08/05 Q1001 BLU BLU TEMPO WHT
EBCV - Chievres Ab, Belgium
Afstand tot: ZO 59 km
Gewijzigd: 13-11-2019 12:25
Grotendeels bewolkt  
Grotendeels bewolkt  
   Wind: ZW 13 km/h
Wind: ZW 13 km/h
Temperatuur: 8°C
Voelt als: 6°C
Dauwpunt: 6°C
Vochtigheid: 87%
Barometer: 1002 hPa
Bewolking: Mostly Cloudy
Zicht: meer dan 10 km
Bewolking: Grotendeels bewolkt 4800 ft
EBCV 131125Z AUTO 23007KT 9999 BKN048/// 08/06 Q1002 BLU
EHFS - Vlissingen, Netherlands
Afstand tot: NNO 65 km
Gewijzigd: 13-11-2019 12:25
Light Showers, Neerslag, Grotendeels bewolkt  
Light Showers, Neerslag, Grotendeels bewolkt  
   Wind: Westen 35.2 km/h<br />Gust to 35.2 km/h
Wind: Westen 35.2 km/h
Gust to 35.2 km/h
Temperatuur: 8°C
Voelt als: 4°C
Dauwpunt: 5°C
Vochtigheid: 82%
Barometer: 1000 hPa
Bewolking: Mostly Cloudy
Zicht: meer dan 10 km
Bewolking: Licht bewolkt 1500 ft,
Gedeeltelijk bewolkt 1900 ft,
Grotendeels bewolkt 2700 ft
EHFS 131125Z AUTO 27019G36KT 240V320 9999 -SHRA FEW015/// SCT019/// BKN027/// 08/05 Q1000 REDZ W///H///
EBBR - Brussels Nationa, Belgium
Afstand tot: O 91 km
Gewijzigd: 13-11-2019 12:20
Licht bewolkt  
Licht bewolkt  
   Wind: ZW 14.8 km/h
Wind: ZW 14.8 km/h
Temperatuur: 8°C
Voelt als: 6°C
Dauwpunt: 6°C
Vochtigheid: 87%
Barometer: 1001 hPa
Bewolking: Few Clouds
Zicht: meer dan 10 km
Bewolking: Licht bewolkt 1400 ft
EBBR 131120Z 23008KT 9999 FEW014 08/06 Q1001 NOSIG
EBAW - Antwerp/Deurne, Belgium
Afstand tot: ONO 94 km
Gewijzigd: 13-11-2019 12:20
Grotendeels bewolkt  
Grotendeels bewolkt  
   Wind: ZW 13 km/h
Wind: ZW 13 km/h
Temperatuur: 9°C
Voelt als: 7°C
Dauwpunt: 6°C
Vochtigheid: 82%
Barometer: 1001 hPa
Bewolking: Mostly Cloudy
Zicht: meer dan 10 km
Bewolking: Licht bewolkt 1500 ft,
Grotendeels bewolkt 3800 ft
EBAW 131120Z 23007KT 9999 FEW015 BKN038 09/06 Q1001 NOSIG
EHWO - Woensdrecht Rnla, Netherlands
Afstand tot: NO 98 km
Gewijzigd: 13-11-2019 12:36
Wat regen mogelijk, Motregen, Grotendeels bewolkt  
Wat regen mogelijk, Motregen, Grotendeels bewolkt  
   Wind: WZW 11.1 km/h
Wind: WZW 11.1 km/h
Temperatuur: 9°C
Voelt als: 7°C
Dauwpunt: 7°C
Vochtigheid: 87%
Barometer: 1000 hPa
Bewolking: Mostly Cloudy
Zicht: meer dan 10 km
Bewolking: Licht bewolkt 1300 ft,
Gedeeltelijk bewolkt 1700 ft,
Grotendeels bewolkt 3600 ft
EHWO 131136Z AUTO 24006KT 9999 -RADZ FEW013 SCT017 BKN036 09/07 Q1000 WHT 22009KT 9999 FEW018 SCT022 BKN040 TEMPO 4500 SHRAGS SCT007 SCT018CB BKN040
EBCI - Charleroi/Gossel, Belgium
Afstand tot: OZO 102 km
Gewijzigd: 13-11-2019 12:20
Grotendeels bewolkt  
Grotendeels bewolkt  
   Wind: ZW 14.8 km/h
Wind: ZW 14.8 km/h
Temperatuur: 7°C
Voelt als: 4°C
Dauwpunt: 5°C
Vochtigheid: 87%
Barometer: 1002 hPa
Bewolking: Mostly Cloudy
Zicht: meer dan 10 km
Bewolking: Licht bewolkt 1200 ft,
Gedeeltelijk bewolkt 1400 ft,
Grotendeels bewolkt 2400 ft
EBCI 131120Z 22008KT 9999 FEW012 SCT014 BKN024 07/05 Q1002 NOSIG

Script ontwikkeld door  Saratoga-weather.org Aangepast voor de template door  Weerstation Leuven